createdAt,value
2023-03-26T00:10:47.938Z,7.96
2023-03-26T02:50:47.917Z,7.88
2023-03-26T03:10:47.882Z,7.88
2023-03-26T03:30:47.925Z,7.88
2023-03-26T03:50:47.878Z,7.87
2023-03-26T04:30:47.763Z,7.87
2023-03-26T06:10:47.692Z,7.81
2023-03-26T06:50:47.826Z,7.79
2023-03-26T07:10:47.829Z,7.78
2023-03-26T07:50:47.283Z,7.77
2023-03-26T08:10:47.663Z,7.77
2023-03-26T08:30:47.817Z,7.77
2023-03-26T08:50:47.795Z,7.76
2023-03-26T09:10:47.773Z,7.76
2023-03-26T09:30:47.800Z,7.75
2023-03-26T09:50:47.781Z,7.75
2023-03-26T10:30:47.255Z,7.73
2023-03-26T11:10:47.786Z,7.72
2023-03-26T11:30:47.782Z,7.71
2023-03-26T11:50:47.229Z,7.71
2023-03-26T12:10:47.197Z,7.7
2023-03-26T12:30:47.583Z,7.7
2023-03-26T12:50:47.718Z,7.7
2023-03-26T13:10:47.706Z,7.7
2023-03-26T13:50:47.173Z,7.7
2023-03-26T14:10:47.703Z,7.7
2023-03-26T14:30:47.699Z,7.71
2023-03-26T14:50:47.744Z,7.72
2023-03-26T15:10:47.169Z,7.73
2023-03-26T15:30:47.673Z,7.74
2023-03-26T15:50:47.708Z,7.74
2023-03-26T16:30:47.666Z,7.76
2023-03-26T16:50:47.636Z,7.77
2023-03-26T17:10:47.103Z,7.77
2023-03-26T17:30:47.619Z,7.77
2023-03-26T17:50:46.865Z,7.78
2023-03-26T18:10:46.825Z,7.78
2023-03-26T18:30:47.608Z,7.79
2023-03-26T18:50:47.454Z,7.79
2023-03-26T19:10:47.647Z,7.8
2023-03-26T19:30:47.625Z,7.81
2023-03-26T19:50:47.579Z,7.82
2023-03-26T20:10:47.471Z,7.82
2023-03-26T20:30:47.580Z,7.83
2023-03-26T20:50:50.589Z,7.83
2023-03-26T21:10:47.578Z,7.83
2023-03-26T21:30:47.025Z,7.83
2023-03-26T21:50:47.558Z,7.83
2023-03-26T22:10:47.579Z,7.82
2023-03-26T22:30:47.600Z,7.81
2023-03-26T22:50:46.745Z,7.81
2023-03-26T23:10:47.529Z,7.8
2023-03-26T23:30:47.551Z,7.79
2023-03-26T23:50:47.381Z,7.78
